sensor_id;sensor_type;location;lat;lon;timestamp;pressure;altitude;pressure_sealevel;temperature;humidity
63285;BME280;49409;55.708;37.522;2023-03-04T00:00:19;97682.03;;;6.01;45.95
63285;BME280;49409;55.708;37.522;2023-03-04T00:02:45;97678.56;;;6.01;45.40
63285;BME280;49409;55.708;37.522;2023-03-04T00:05:10;97680.50;;;6.00;45.47
63285;BME280;49409;55.708;37.522;2023-03-04T00:07:36;97678.09;;;6.02;45.35
63285;BME280;49409;55.708;37.522;2023-03-04T00:10:02;97678.09;;;6.02;45.56
63285;BME280;49409;55.708;37.522;2023-03-04T00:12:27;97671.47;;;6.03;45.55
63285;BME280;49409;55.708;37.522;2023-03-04T00:14:53;97665.16;;;6.06;45.47
63285;BME280;49409;55.708;37.522;2023-03-04T00:17:18;97660.03;;;6.08;45.62
63285;BME280;49409;55.708;37.522;2023-03-04T00:19:43;97661.56;;;6.09;45.50
63285;BME280;49409;55.708;37.522;2023-03-04T00:22:34;97646.72;;;6.10;45.76
63285;BME280;49409;55.708;37.522;2023-03-04T00:25:03;97643.66;;;6.08;45.93
63285;BME280;49409;55.708;37.522;2023-03-04T00:27:28;97639.72;;;6.09;46.08
63285;BME280;49409;55.708;37.522;2023-03-04T00:29:54;97636.66;;;6.07;45.62
63285;BME280;49409;55.708;37.522;2023-03-04T00:32:19;97637.59;;;6.01;46.24
63285;BME280;49409;55.708;37.522;2023-03-04T00:34:45;97634.97;;;5.97;45.68
63285;BME280;49409;55.708;37.522;2023-03-04T00:37:10;97629.84;;;5.99;45.92
63285;BME280;49409;55.708;37.522;2023-03-04T00:39:35;97631.47;;;5.97;45.99
63285;BME280;49409;55.708;37.522;2023-03-04T00:42:01;97640.06;;;5.95;45.87
63285;BME280;49409;55.708;37.522;2023-03-04T00:44:26;97629.97;;;5.92;46.36
63285;BME280;49409;55.708;37.522;2023-03-04T00:46:51;97632.38;;;5.90;46.24
63285;BME280;49409;55.708;37.522;2023-03-04T00:49:17;97628.63;;;5.84;46.15
63285;BME280;49409;55.708;37.522;2023-03-04T00:51:42;97622.31;;;5.87;46.10
63285;BME280;49409;55.708;37.522;2023-03-04T00:54:07;97619.25;;;5.85;46.33
63285;BME280;49409;55.708;37.522;2023-03-04T00:56:33;97635.97;;;5.87;46.17
63285;BME280;49409;55.708;37.522;2023-03-04T00:58:58;97635.63;;;5.85;46.52
63285;BME280;49409;55.708;37.522;2023-03-04T01:01:23;97629.50;;;5.81;45.84
63285;BME280;49409;55.708;37.522;2023-03-04T01:03:49;97634.94;;;5.81;46.22
63285;BME280;49409;55.708;37.522;2023-03-04T01:06:14;97631.09;;;5.78;45.97
63285;BME280;49409;55.708;37.522;2023-03-04T01:08:39;97618.22;;;5.79;46.01
63285;BME280;49409;55.708;37.522;2023-03-04T01:11:05;97623.91;;;5.84;46.64
63285;BME280;49409;55.708;37.522;2023-03-04T01:13:30;97623.06;;;5.87;46.41
63285;BME280;49409;55.708;37.522;2023-03-04T01:15:56;97620.34;;;5.87;46.53
63285;BME280;49409;55.708;37.522;2023-03-04T01:18:22;97619.94;;;5.89;45.91
63285;BME280;49409;55.708;37.522;2023-03-04T01:20:47;97619.94;;;5.89;46.22
63285;BME280;49409;55.708;37.522;2023-03-04T01:23:13;97616.31;;;5.92;46.46
63285;BME280;49409;55.708;37.522;2023-03-04T01:25:38;97626.91;;;5.90;46.64
63285;BME280;49409;55.708;37.522;2023-03-04T01:28:03;97615.31;;;5.86;46.84
63285;BME280;49409;55.708;37.522;2023-03-04T01:30:29;97620.97;;;5.79;47.00
63285;BME280;49409;55.708;37.522;2023-03-04T01:32:54;97610.03;;;5.79;46.41
63285;BME280;49409;55.708;37.522;2023-03-04T01:35:19;97606.53;;;5.78;46.70
63285;BME280;49409;55.708;37.522;2023-03-04T01:37:45;97604.59;;;5.79;47.01
63285;BME280;49409;55.708;37.522;2023-03-04T01:40:10;97601.69;;;5.69;46.79
63285;BME280;49409;55.708;37.522;2023-03-04T01:42:37;97603.31;;;5.67;46.79
63285;BME280;49409;55.708;37.522;2023-03-04T01:45:02;97601.69;;;5.69;46.75
63285;BME280;49409;55.708;37.522;2023-03-04T01:47:29;97596.22;;;5.69;46.99
63285;BME280;49409;55.708;37.522;2023-03-04T01:49:56;97593.91;;;5.68;46.99
63285;BME280;49409;55.708;37.522;2023-03-04T01:52:22;97589.91;;;5.72;46.87
63285;BME280;49409;55.708;37.522;2023-03-04T01:54:47;97585.56;;;5.75;46.84
63285;BME280;49409;55.708;37.522;2023-03-04T01:57:17;97588.22;;;5.79;46.46
63285;BME280;49409;55.708;37.522;2023-03-04T01:59:43;97578.81;;;5.80;46.75
63285;BME280;49409;55.708;37.522;2023-03-04T02:02:08;97575.75;;;5.78;46.69
63285;BME280;49409;55.708;37.522;2023-03-04T02:04:33;97572.34;;;5.73;47.16
63285;BME280;49409;55.708;37.522;2023-03-04T02:06:59;97572.44;;;5.70;47.09
63285;BME280;49409;55.708;37.522;2023-03-04T02:09:25;97564.31;;;5.66;47.15
63285;BME280;49409;55.708;37.522;2023-03-04T02:11:51;97566.91;;;5.57;47.06
63285;BME280;49409;55.708;37.522;2023-03-04T02:14:17;97567.75;;;5.54;47.51
63285;BME280;49409;55.708;37.522;2023-03-04T02:16:43;97554.13;;;5.54;47.47
63285;BME280;49409;55.708;37.522;2023-03-04T02:19:12;97552.94;;;5.55;47.32
63285;BME280;49409;55.708;37.522;2023-03-04T02:21:38;97554.13;;;5.54;47.09
63285;BME280;49409;55.708;37.522;2023-03-04T02:26:39;97537.56;;;5.45;47.35
63285;BME280;49409;55.708;37.522;2023-03-04T02:29:07;97535.38;;;5.40;47.07
63285;BME280;49409;55.708;37.522;2023-03-04T02:31:34;97529.59;;;5.38;47.16
63285;BME280;49409;55.708;37.522;2023-03-04T02:34:22;97529.75;;;5.30;47.75
63285;BME280;49409;55.708;37.522;2023-03-04T02:36:46;97521.97;;;5.29;47.33
63285;BME280;49409;55.708;37.522;2023-03-04T02:39:20;97520.63;;;5.21;47.40
63285;BME280;49409;55.708;37.522;2023-03-04T02:41:46;97517.97;;;5.17;47.77
63285;BME280;49409;55.708;37.522;2023-03-04T02:44:16;97507.41;;;5.19;47.46
63285;BME280;49409;55.708;37.522;2023-03-04T02:46:41;97510.13;;;5.19;47.44
63285;BME280;49409;55.708;37.522;2023-03-04T02:49:07;97506.56;;;5.22;47.41
63285;BME280;49409;55.708;37.522;2023-03-04T02:51:32;97508.47;;;5.25;48.08
63285;BME280;49409;55.708;37.522;2023-03-04T02:53:57;97500.97;;;5.29;47.92
63285;BME280;49409;55.708;37.522;2023-03-04T02:56:23;97482.28;;;5.28;47.70
63285;BME280;49409;55.708;37.522;2023-03-04T02:58:48;97494.97;;;5.34;47.72
63285;BME280;49409;55.708;37.522;2023-03-04T03:01:13;97499.31;;;5.32;47.24
63285;BME280;49409;55.708;37.522;2023-03-04T03:03:39;97501.28;;;5.31;47.67
63285;BME280;49409;55.708;37.522;2023-03-04T03:06:04;97490.03;;;5.29;47.36
63285;BME280;49409;55.708;37.522;2023-03-04T03:08:29;97494.28;;;5.30;47.57
63285;BME280;49409;55.708;37.522;2023-03-04T03:10:55;97495.16;;;5.27;47.83
63285;BME280;49409;55.708;37.522;2023-03-04T03:13:20;97488.00;;;5.33;47.79
63285;BME280;49409;55.708;37.522;2023-03-04T03:15:45;97486.44;;;5.32;47.70
63285;BME280;49409;55.708;37.522;2023-03-04T03:18:11;97484.41;;;5.20;47.94
63285;BME280;49409;55.708;37.522;2023-03-04T03:20:36;97487.56;;;5.19;47.62
63285;BME280;49409;55.708;37.522;2023-03-04T03:23:02;97487.66;;;5.15;48.10
63285;BME280;49409;55.708;37.522;2023-03-04T03:25:28;97479.13;;;5.13;48.20
63285;BME280;49409;55.708;37.522;2023-03-04T03:27:53;97478.78;;;5.11;47.80
63285;BME280;49409;55.708;37.522;2023-03-04T03:30:18;97476.81;;;5.11;48.02
63285;BME280;49409;55.708;37.522;2023-03-04T03:32:44;97468.56;;;5.15;48.00
63285;BME280;49409;55.708;37.522;2023-03-04T03:35:10;97470.63;;;5.11;48.30
63285;BME280;49409;55.708;37.522;2023-03-04T03:37:35;97474.09;;;5.11;48.02
63285;BME280;49409;55.708;37.522;2023-03-04T03:40:01;97469.09;;;5.10;47.93
63285;BME280;49409;55.708;37.522;2023-03-04T03:42:26;97466.72;;;5.12;47.94
63285;BME280;49409;55.708;37.522;2023-03-04T03:44:51;97461.25;;;5.12;47.83
63285;BME280;49409;55.708;37.522;2023-03-04T03:47:17;97461.25;;;5.12;48.30
63285;BME280;49409;55.708;37.522;2023-03-04T03:49:42;97462.28;;;5.18;47.90
63285;BME280;49409;55.708;37.522;2023-03-04T03:52:08;97464.03;;;5.25;47.79
63285;BME280;49409;55.708;37.522;2023-03-04T03:54:33;97457.06;;;5.24;47.52
63285;BME280;49409;55.708;37.522;2023-03-04T03:56:59;97458.00;;;5.17;47.69
63285;BME280;49409;55.708;37.522;2023-03-04T03:59:24;97447.28;;;5.10;47.49
63285;BME280;49409;55.708;37.522;2023-03-04T04:01:49;97434.00;;;5.12;48.30
63285;BME280;49409;55.708;37.522;2023-03-04T04:04:15;97431.94;;;5.16;47.75
63285;BME280;49409;55.708;37.522;2023-03-04T04:06:40;97431.41;;;5.21;48.00
63285;BME280;49409;55.708;37.522;2023-03-04T04:09:06;97421.53;;;5.27;47.64
63285;BME280;49409;55.708;37.522;2023-03-04T04:11:31;97423.72;;;5.32;47.47
63285;BME280;49409;55.708;37.522;2023-03-04T04:13:57;97410.44;;;5.34;48.15
63285;BME280;49409;55.708;37.522;2023-03-04T04:16:22;97416.41;;;5.29;47.45
63285;BME280;49409;55.708;37.522;2023-03-04T04:18:47;97408.56;;;5.31;47.77
63285;BME280;49409;55.708;37.522;2023-03-04T04:21:13;97406.28;;;5.30;47.71
63285;BME280;49409;55.708;37.522;2023-03-04T04:23:38;97400.22;;;5.22;48.19
63285;BME280;49409;55.708;37.522;2023-03-04T04:26:03;97402.13;;;5.09;48.28
63285;BME280;49409;55.708;37.522;2023-03-04T04:28:29;97395.16;;;5.08;48.02
63285;BME280;49409;55.708;37.522;2023-03-04T04:30:54;97394.47;;;5.04;48.62
63285;BME280;49409;55.708;37.522;2023-03-04T04:33:20;97397.63;;;5.02;48.07
63285;BME280;49409;55.708;37.522;2023-03-04T04:35:45;97404.19;;;5.05;47.78
63285;BME280;49409;55.708;37.522;2023-03-04T04:38:10;97399.81;;;5.07;48.45
63285;BME280;49409;55.708;37.522;2023-03-04T04:40:36;97401.28;;;5.12;48.60
63285;BME280;49409;55.708;37.522;2023-03-04T04:43:01;97400.41;;;5.15;48.29
63285;BME280;49409;55.708;37.522;2023-03-04T04:45:27;97385.59;;;5.16;48.23
63285;BME280;49409;55.708;37.522;2023-03-04T04:51:08;97389.38;;;5.06;49.09
63285;BME280;49409;55.708;37.522;2023-03-04T04:53:34;97395.91;;;5.08;48.66
63285;BME280;49409;55.708;37.522;2023-03-04T04:55:59;97405.78;;;5.19;47.97
63285;BME280;49409;55.708;37.522;2023-03-04T04:58:24;97390.66;;;5.30;48.55
63285;BME280;49409;55.708;37.522;2023-03-04T05:00:50;97390.91;;;5.36;48.24
63285;BME280;49409;55.708;37.522;2023-03-04T05:03:15;97389.63;;;5.41;48.56
63285;BME280;49409;55.708;37.522;2023-03-04T05:05:41;97383.75;;;5.42;48.32
63285;BME280;49409;55.708;37.522;2023-03-04T05:08:06;97387.28;;;5.55;48.07
63285;BME280;49409;55.708;37.522;2023-03-04T05:10:31;97383.50;;;5.66;47.82
63285;BME280;49409;55.708;37.522;2023-03-04T05:12:57;97384.38;;;5.75;48.06
63285;BME280;49409;55.708;37.522;2023-03-04T05:15:22;97376.53;;;5.78;47.93
63285;BME280;49409;55.708;37.522;2023-03-04T05:17:47;97374.47;;;5.82;48.13
63285;BME280;49409;55.708;37.522;2023-03-04T05:20:13;97379.06;;;5.85;47.72
63285;BME280;49409;55.708;37.522;2023-03-04T05:22:38;97377.44;;;5.87;47.75
63285;BME280;49409;55.708;37.522;2023-03-04T05:25:04;97373.72;;;5.94;47.73
63285;BME280;49409;55.708;37.522;2023-03-04T05:27:29;97367.94;;;5.92;47.95
63285;BME280;49409;55.708;37.522;2023-03-04T05:29:54;97372.19;;;5.93;47.85
63285;BME280;49409;55.708;37.522;2023-03-04T05:32:23;97371.25;;;6.00;47.58
63285;BME280;49409;55.708;37.522;2023-03-04T05:34:49;97371.38;;;6.09;47.44
63285;BME280;49409;55.708;37.522;2023-03-04T05:37:14;97373.44;;;6.18;47.62
63285;BME280;49409;55.708;37.522;2023-03-04T05:39:39;97375.66;;;6.23;47.63
63285;BME280;49409;55.708;37.522;2023-03-04T05:42:05;97380.22;;;6.26;47.50
63285;BME280;49409;55.708;37.522;2023-03-04T05:44:30;97367.44;;;6.23;47.53
63285;BME280;49409;55.708;37.522;2023-03-04T05:46:55;97367.44;;;6.23;47.76
63285;BME280;49409;55.708;37.522;2023-03-04T05:49:21;97364.72;;;6.23;47.25
63285;BME280;49409;55.708;37.522;2023-03-04T05:51:46;97363.84;;;6.26;47.55
63285;BME280;49409;55.708;37.522;2023-03-04T05:54:11;97362.97;;;6.29;47.38
63285;BME280;49409;55.708;37.522;2023-03-04T05:56:37;97362.66;;;6.27;47.29
63285;BME280;49409;55.708;37.522;2023-03-04T05:59:02;97355.53;;;6.29;47.84
63285;BME280;49409;55.708;37.522;2023-03-04T06:01:27;97355.75;;;6.35;47.39
63285;BME280;49409;55.708;37.522;2023-03-04T06:03:54;97348.88;;;6.43;47.56
63285;BME280;49409;55.708;37.522;2023-03-04T06:06:19;97351.50;;;6.47;47.44
63285;BME280;49409;55.708;37.522;2023-03-04T06:08:45;97344.81;;;6.61;47.18
63285;BME280;49409;55.708;37.522;2023-03-04T06:11:10;97345.88;;;6.76;46.94
63285;BME280;49409;55.708;37.522;2023-03-04T06:13:35;97342.00;;;6.86;47.28
63285;BME280;49409;55.708;37.522;2023-03-04T06:16:02;97341.47;;;6.91;47.18
63285;BME280;49409;55.708;37.522;2023-03-04T06:18:27;97345.41;;;6.90;46.94
63285;BME280;49409;55.708;37.522;2023-03-04T06:20:56;97338.28;;;6.93;47.04
63285;BME280;49409;55.708;37.522;2023-03-04T06:23:22;97335.63;;;7.02;46.81
63285;BME280;49409;55.708;37.522;2023-03-04T06:25:50;97322.78;;;7.12;46.72
63285;BME280;49409;55.708;37.522;2023-03-04T06:28:15;97323.13;;;7.14;46.65
63285;BME280;49409;55.708;37.522;2023-03-04T06:30:40;97325.94;;;7.23;46.57
63285;BME280;49409;55.708;37.522;2023-03-04T06:33:06;97325.22;;;7.32;46.51
63285;BME280;49409;55.708;37.522;2023-03-04T06:35:31;97319.69;;;7.45;46.44
63285;BME280;49409;55.708;37.522;2023-03-04T06:37:56;97320.06;;;7.56;46.43
63285;BME280;49409;55.708;37.522;2023-03-04T06:40:22;97311.59;;;7.63;46.20
63285;BME280;49409;55.708;37.522;2023-03-04T06:42:47;97310.41;;;7.64;45.96
63285;BME280;49409;55.708;37.522;2023-03-04T06:45:12;97306.88;;;7.64;46.24
63285;BME280;49409;55.708;37.522;2023-03-04T06:47:38;97294.28;;;7.66;46.12
63285;BME280;49409;55.708;37.522;2023-03-04T06:50:04;97298.22;;;7.65;45.78
63285;BME280;49409;55.708;37.522;2023-03-04T06:52:29;97298.66;;;7.64;46.00
63285;BME280;49409;55.708;37.522;2023-03-04T06:54:54;97291.88;;;7.68;45.89
63285;BME280;49409;55.708;37.522;2023-03-04T06:57:20;97300.41;;;7.70;45.76
63285;BME280;49409;55.708;37.522;2023-03-04T06:59:45;97290.66;;;7.69;45.75
63285;BME280;49409;55.708;37.522;2023-03-04T07:02:11;97290.97;;;7.71;45.94
63285;BME280;49409;55.708;37.522;2023-03-04T07:04:36;97282.19;;;7.77;45.81
63285;BME280;49409;55.708;37.522;2023-03-04T07:07:02;97276.09;;;7.82;45.68
63285;BME280;49409;55.708;37.522;2023-03-04T07:09:27;97277.69;;;7.92;45.50
63285;BME280;49409;55.708;37.522;2023-03-04T07:11:52;97270.59;;;8.04;45.57
63285;BME280;49409;55.708;37.522;2023-03-04T07:14:18;97263.91;;;8.14;45.44
63285;BME280;49409;55.708;37.522;2023-03-04T07:16:43;97272.63;;;8.22;45.43
63285;BME280;49409;55.708;37.522;2023-03-04T07:19:08;97264.09;;;8.29;45.48
63285;BME280;49409;55.708;37.522;2023-03-04T07:21:34;97254.97;;;8.32;45.21
63285;BME280;49409;55.708;37.522;2023-03-04T07:23:59;97249.06;;;8.33;45.16
63285;BME280;49409;55.708;37.522;2023-03-04T07:26:24;97246.31;;;8.33;45.13
63285;BME280;49409;55.708;37.522;2023-03-04T07:28:50;97242.66;;;8.27;45.10
63285;BME280;49409;55.708;37.522;2023-03-04T07:31:24;97241.59;;;8.34;45.16
63285;BME280;49409;55.708;37.522;2023-03-04T07:33:51;97252.91;;;8.45;45.19
63285;BME280;49409;55.708;37.522;2023-03-04T07:36:16;97241.63;;;8.52;44.94
63285;BME280;49409;55.708;37.522;2023-03-04T07:38:44;97236.00;;;8.56;45.01
63285;BME280;49409;55.708;37.522;2023-03-04T07:41:09;97231.59;;;8.59;44.77
63285;BME280;49409;55.708;37.522;2023-03-04T07:43:35;97236.16;;;8.52;44.12
63285;BME280;49409;55.708;37.522;2023-03-04T07:46:00;97232.22;;;8.53;44.89
63285;BME280;49409;55.708;37.522;2023-03-04T07:48:26;97228.53;;;8.57;44.84
63285;BME280;49409;55.708;37.522;2023-03-04T07:51:01;97228.22;;;8.54;44.79
63285;BME280;49409;55.708;37.522;2023-03-04T07:53:26;97213.31;;;8.56;44.76
63285;BME280;49409;55.708;37.522;2023-03-04T07:55:52;97216.97;;;8.62;44.93
63285;BME280;49409;55.708;37.522;2023-03-04T07:58:17;97224.91;;;8.60;44.81
63285;BME280;49409;55.708;37.522;2023-03-04T08:00:43;97217.13;;;8.58;44.72
63285;BME280;49409;55.708;37.522;2023-03-04T08:03:09;97217.56;;;8.57;44.50
63285;BME280;49409;55.708;37.522;2023-03-04T08:05:34;97216.34;;;8.48;44.64
63285;BME280;49409;55.708;37.522;2023-03-04T08:07:59;97212.09;;;8.47;44.80
63285;BME280;49409;55.708;37.522;2023-03-04T08:10:25;97214.53;;;8.45;44.76
63285;BME280;49409;55.708;37.522;2023-03-04T08:12:50;97202.34;;;8.46;44.59
63285;BME280;49409;55.708;37.522;2023-03-04T08:15:15;97211.63;;;8.49;44.73
63285;BME280;49409;55.708;37.522;2023-03-04T08:17:41;97208.75;;;8.52;44.70
63285;BME280;49409;55.708;37.522;2023-03-04T08:20:06;97208.75;;;8.52;44.57
63285;BME280;49409;55.708;37.522;2023-03-04T08:22:32;97199.63;;;8.56;44.59
63285;BME280;49409;55.708;37.522;2023-03-04T08:24:57;97190.19;;;8.66;44.44
63285;BME280;49409;55.708;37.522;2023-03-04T08:27:22;97189.88;;;8.73;43.98
63285;BME280;49409;55.708;37.522;2023-03-04T08:29:48;97188.66;;;8.74;44.29
63285;BME280;49409;55.708;37.522;2023-03-04T08:32:13;97187.44;;;8.75;44.51
63285;BME280;49409;55.708;37.522;2023-03-04T08:34:38;97183.47;;;8.76;44.40
63285;BME280;49409;55.708;37.522;2023-03-04T08:37:04;97186.81;;;8.80;44.25
63285;BME280;49409;55.708;37.522;2023-03-04T08:39:29;97179.53;;;8.77;43.88
63285;BME280;49409;55.708;37.522;2023-03-04T08:41:57;97176.16;;;8.73;44.25
63285;BME280;49409;55.708;37.522;2023-03-04T08:44:22;97181.66;;;8.73;44.08
63285;BME280;49409;55.708;37.522;2023-03-04T08:46:48;97174.34;;;8.70;43.75
63285;BME280;49409;55.708;37.522;2023-03-04T08:49:14;97162.47;;;8.64;43.96
63285;BME280;49409;55.708;37.522;2023-03-04T08:51:39;97161.41;;;8.61;44.02
63285;BME280;49409;55.708;37.522;2023-03-04T08:54:05;97158.34;;;8.59;44.10
63285;BME280;49409;55.708;37.522;2023-03-04T08:56:30;97158.81;;;8.67;43.81
63285;BME280;49409;55.708;37.522;2023-03-04T08:58:55;97149.97;;;8.72;43.94
63285;BME280;49409;55.708;37.522;2023-03-04T09:01:21;97145.69;;;8.80;43.73
63285;BME280;49409;55.708;37.522;2023-03-04T09:03:46;97143.53;;;8.93;43.84
63285;BME280;49409;55.708;37.522;2023-03-04T09:06:12;97135.84;;;9.16;43.58
63285;BME280;49409;55.708;37.522;2023-03-04T09:08:38;97143.69;;;9.42;43.13
63285;BME280;49409;55.708;37.522;2023-03-04T09:11:03;97138.47;;;9.53;42.30
63285;BME280;49409;55.708;37.522;2023-03-04T09:13:29;97127.00;;;9.64;42.46
63285;BME280;49409;55.708;37.522;2023-03-04T09:15:55;97122.53;;;9.66;42.53
63285;BME280;49409;55.708;37.522;2023-03-04T09:18:21;97123.53;;;9.78;43.08
63285;BME280;49409;55.708;37.522;2023-03-04T09:20:46;97113.44;;;9.84;42.52
63285;BME280;49409;55.708;37.522;2023-03-04T09:23:11;97113.44;;;9.84;42.38
63285;BME280;49409;55.708;37.522;2023-03-04T09:25:37;97102.78;;;9.77;42.79
63285;BME280;49409;55.708;37.522;2023-03-04T09:28:02;97108.00;;;9.75;42.37
63285;BME280;49409;55.708;37.522;2023-03-04T09:30:28;97100.28;;;9.64;43.05
63285;BME280;49409;55.708;37.522;2023-03-04T09:32:54;97099.69;;;9.60;42.99
63285;BME280;49409;55.708;37.522;2023-03-04T09:35:19;97092.84;;;9.56;43.09
63285;BME280;49409;55.708;37.522;2023-03-04T09:37:45;97083.56;;;9.53;42.78
63285;BME280;49409;55.708;37.522;2023-03-04T09:40:15;97085.56;;;9.52;42.74
63285;BME280;49409;55.708;37.522;2023-03-04T09:42:43;97078.44;;;9.46;42.45
63285;BME280;49409;55.708;37.522;2023-03-04T09:45:12;97071.56;;;9.41;42.16
63285;BME280;49409;55.708;37.522;2023-03-04T09:47:40;97056.16;;;9.44;42.53
63285;BME280;49409;55.708;37.522;2023-03-04T09:50:07;97041.97;;;9.69;42.14
63285;BME280;49409;55.708;37.522;2023-03-04T10:04:58;97015.59;;;9.87;40.92
63285;BME280;49409;55.708;37.522;2023-03-04T10:07:30;97021.38;;;9.89;41.03
63285;BME280;49409;55.708;37.522;2023-03-04T10:10:03;97008.63;;;10.01;41.10
63285;BME280;49409;55.708;37.522;2023-03-04T10:12:29;97008.44;;;10.04;40.52
63285;BME280;49409;55.708;37.522;2023-03-04T10:17:28;96994.88;;;10.01;40.79
63285;BME280;49409;55.708;37.522;2023-03-04T10:20:03;96994.31;;;9.97;40.75
63285;BME280;49409;55.708;37.522;2023-03-04T10:22:32;96989.94;;;9.90;41.41
63285;BME280;49409;55.708;37.522;2023-03-04T10:25:01;96990.88;;;9.87;41.17
63285;BME280;49409;55.708;37.522;2023-03-04T10:27:32;96979.91;;;9.87;41.01
63285;BME280;49409;55.708;37.522;2023-03-04T10:29:57;96974.41;;;9.87;41.17
63285;BME280;49409;55.708;37.522;2023-03-04T10:32:24;96968.16;;;9.86;41.05
63285;BME280;49409;55.708;37.522;2023-03-04T10:34:49;96970.72;;;9.90;41.04
63285;BME280;49409;55.708;37.522;2023-03-04T10:37:15;96972.50;;;9.93;41.38
63285;BME280;49409;55.708;37.522;2023-03-04T10:39:41;96966.38;;;9.98;40.92
63285;BME280;49409;55.708;37.522;2023-03-04T10:44:35;96965.44;;;10.01;41.00
63285;BME280;49409;55.708;37.522;2023-03-04T10:47:08;96947.72;;;10.02;41.26
63285;BME280;49409;55.708;37.522;2023-03-04T10:49:34;96949.03;;;9.92;41.08
63285;BME280;49409;55.708;37.522;2023-03-04T10:54:46;96945.63;;;9.97;41.43
63285;BME280;49409;55.708;37.522;2023-03-04T10:57:16;96940.13;;;9.97;40.99
63285;BME280;49409;55.708;37.522;2023-03-04T10:59:46;96934.28;;;9.89;41.20
63285;BME280;49409;55.708;37.522;2023-03-04T11:02:22;96933.88;;;9.82;41.42
63285;BME280;49409;55.708;37.522;2023-03-04T11:04:49;96932.25;;;9.75;41.46
63285;BME280;49409;55.708;37.522;2023-03-04T11:07:15;96930.97;;;9.61;42.10
63285;BME280;49409;55.708;37.522;2023-03-04T11:09:40;96920.78;;;9.62;41.96
63285;BME280;49409;55.708;37.522;2023-03-04T11:12:15;96918.88;;;9.68;41.70
63285;BME280;49409;55.708;37.522;2023-03-04T11:14:45;96906.19;;;9.70;41.98
63285;BME280;49409;55.708;37.522;2023-03-04T11:17:21;96903.00;;;9.72;41.86
63285;BME280;49409;55.708;37.522;2023-03-04T11:19:48;96895.00;;;9.59;41.81
63285;BME280;49409;55.708;37.522;2023-03-04T11:22:16;96903.84;;;9.39;42.17
63285;BME280;49409;55.708;37.522;2023-03-04T11:24:42;96897.03;;;9.35;42.26
63285;BME280;49409;55.708;37.522;2023-03-04T11:27:17;96901.09;;;9.24;42.57
63285;BME280;49409;55.708;37.522;2023-03-04T11:29:53;96889.22;;;9.18;42.61
63285;BME280;49409;55.708;37.522;2023-03-04T11:32:24;96889.59;;;9.11;43.08
63285;BME280;49409;55.708;37.522;2023-03-04T11:35:15;96883.22;;;9.05;43.26
63285;BME280;49409;55.708;37.522;2023-03-04T11:38:21;96876.09;;;8.98;43.27
63285;BME280;49409;55.708;37.522;2023-03-04T11:42:56;96869.34;;;9.08;43.09
63285;BME280;49409;55.708;37.522;2023-03-04T11:45:27;96867.34;;;9.09;43.13
63285;BME280;49409;55.708;37.522;2023-03-04T11:48:11;96864.94;;;9.02;43.40
63285;BME280;49409;55.708;37.522;2023-03-04T11:53:30;96857.16;;;8.85;43.40
63285;BME280;49409;55.708;37.522;2023-03-04T12:01:25;96848.56;;;8.68;44.14
63285;BME280;49409;55.708;37.522;2023-03-04T12:06:45;96838.44;;;8.50;44.45
63285;BME280;49409;55.708;37.522;2023-03-04T12:14:20;96825.13;;;8.34;44.93
63285;BME280;49409;55.708;37.522;2023-03-04T12:19:25;96817.81;;;8.31;44.93
63285;BME280;49409;55.708;37.522;2023-03-04T12:21:55;96816.88;;;8.43;44.80
63285;BME280;49409;55.708;37.522;2023-03-04T12:24:33;96801.13;;;8.53;44.50
63285;BME280;49409;55.708;37.522;2023-03-04T12:32:43;96794.31;;;8.39;45.08
63285;BME280;49409;55.708;37.522;2023-03-04T12:40:29;96772.38;;;8.15;45.97
63285;BME280;49409;55.708;37.522;2023-03-04T12:55:41;96758.03;;;8.29;45.40
63285;BME280;49409;55.708;37.522;2023-03-04T12:58:18;96750.59;;;8.21;45.95
63285;BME280;49409;55.708;37.522;2023-03-04T13:08:36;96740.91;;;8.10;46.30
63285;BME280;49409;55.708;37.522;2023-03-04T13:18:59;96719.34;;;8.03;46.29
63285;BME280;49409;55.708;37.522;2023-03-04T13:21:27;96725.41;;;8.07;46.19
63285;BME280;49409;55.708;37.522;2023-03-04T13:23:52;96716.28;;;8.10;46.12
63285;BME280;49409;55.708;37.522;2023-03-04T13:26:33;96711.78;;;7.98;47.06
63285;BME280;49409;55.708;37.522;2023-03-04T13:29:09;96706.47;;;7.94;46.90
63285;BME280;49409;55.708;37.522;2023-03-04T13:31:55;96703.94;;;7.82;47.58
63285;BME280;49409;55.708;37.522;2023-03-04T13:37:20;96692.66;;;7.89;46.93
63285;BME280;49409;55.708;37.522;2023-03-04T13:39:56;96696.28;;;7.95;47.00
63285;BME280;49409;55.708;37.522;2023-03-04T13:42:39;96685.28;;;8.04;46.75
63285;BME280;49409;55.708;37.522;2023-03-04T13:45:28;96681.66;;;7.98;47.23
63285;BME280;49409;55.708;37.522;2023-03-04T13:47:50;96681.94;;;8.00;46.69
63285;BME280;49409;55.708;37.522;2023-03-04T13:50:23;96675.88;;;7.96;46.98
63285;BME280;49409;55.708;37.522;2023-03-04T13:52:49;96667.19;;;7.98;46.80
63285;BME280;49409;55.708;37.522;2023-03-04T13:57:59;96661.97;;;8.09;46.71
63285;BME280;49409;55.708;37.522;2023-03-04T14:00:25;96661.78;;;8.12;46.53
63285;BME280;49409;55.708;37.522;2023-03-04T14:02:51;96657.81;;;8.13;46.61
63285;BME280;49409;55.708;37.522;2023-03-04T14:05:16;96653.28;;;8.10;46.53
63285;BME280;49409;55.708;37.522;2023-03-04T14:07:41;96644.78;;;8.08;46.73
63285;BME280;49409;55.708;37.522;2023-03-04T14:12:36;96645.47;;;7.94;46.89
63285;BME280;49409;55.708;37.522;2023-03-04T14:15:05;96637.16;;;7.88;47.31
63285;BME280;49409;55.708;37.522;2023-03-04T14:17:40;96643.41;;;7.80;47.24
63285;BME280;49409;55.708;37.522;2023-03-04T14:22:49;96630.09;;;7.72;47.11
63285;BME280;49409;55.708;37.522;2023-03-04T14:27:43;96616.69;;;7.74;47.63
63285;BME280;49409;55.708;37.522;2023-03-04T14:30:29;96619.47;;;7.65;47.72
63285;BME280;49409;55.708;37.522;2023-03-04T14:32:55;96616.00;;;7.65;47.79
63285;BME280;49409;55.708;37.522;2023-03-04T14:35:31;96614.28;;;7.67;47.53
63285;BME280;49409;55.708;37.522;2023-03-04T14:40:23;96611.69;;;7.73;47.42